createdAt,value
2018-07-16T00:00:59.153Z,70.92
2018-07-16T00:01:59.202Z,70.15
2018-07-16T00:02:59.155Z,70.73
2018-07-16T00:03:59.197Z,70.35
2018-07-16T00:04:59.208Z,69.87
2018-07-16T00:05:59.239Z,70.06
2018-07-16T00:06:59.277Z,70.25
2018-07-16T00:07:59.324Z,70.44
2018-07-16T00:08:59.344Z,70.83
2018-07-16T00:09:59.289Z,70.83
2018-07-16T00:10:59.294Z,70.35
2018-07-16T00:11:59.273Z,70.25
2018-07-16T00:12:59.326Z,70.35
2018-07-16T00:13:59.353Z,70.35
2018-07-16T00:14:59.370Z,70.15
2018-07-16T00:15:59.383Z,69.77
2018-07-16T00:16:59.440Z,70.44
2018-07-16T00:17:59.439Z,70.35
2018-07-16T00:18:59.384Z,70.44
2018-07-16T00:19:59.416Z,70.44
2018-07-16T00:20:59.510Z,70.44
2018-07-16T00:21:59.431Z,70.15
2018-07-16T00:22:59.429Z,70.25
2018-07-16T00:23:59.499Z,70.44
2018-07-16T00:24:59.509Z,70.35
2018-07-16T00:25:59.544Z,70.92
2018-07-16T00:26:59.614Z,71.60
2018-07-16T00:27:59.515Z,71.31
2018-07-16T00:28:59.527Z,70.54
2018-07-16T00:29:59.543Z,70.83
2018-07-16T00:30:59.613Z,70.92
2018-07-16T00:31:59.589Z,70.64
2018-07-16T00:32:59.621Z,71.02
2018-07-16T00:33:59.601Z,70.64
2018-07-16T00:34:59.593Z,70.06
2018-07-16T00:35:59.642Z,70.44
2018-07-16T00:36:59.627Z,70.83
2018-07-16T00:37:59.706Z,71.41
2018-07-16T00:38:59.682Z,70.83
2018-07-16T00:39:59.667Z,70.83
2018-07-16T00:40:59.678Z,70.25
2018-07-16T00:41:59.713Z,70.06
2018-07-16T00:42:59.714Z,70.25
2018-07-16T00:43:59.740Z,70.35
2018-07-16T00:44:59.757Z,70.83
2018-07-16T00:45:59.757Z,69.96
2018-07-16T00:46:59.778Z,70.15
2018-07-16T00:47:59.763Z,70.44
2018-07-16T00:48:59.803Z,70.44
2018-07-16T00:49:59.810Z,70.15
2018-07-16T00:50:59.794Z,70.64
2018-07-16T00:51:59.808Z,70.92
2018-07-16T00:52:59.842Z,70.25
2018-07-16T00:53:59.896Z,70.35
2018-07-16T00:54:59.867Z,70.35
2018-07-16T00:55:59.890Z,70.25
2018-07-16T00:56:59.897Z,70.15
2018-07-16T00:57:59.926Z,69.96
2018-07-16T00:58:59.963Z,70.44
2018-07-16T00:59:59.976Z,70.15
2018-07-16T01:00:59.958Z,69.96
2018-07-16T01:01:59.954Z,70.15
2018-07-16T01:02:59.964Z,69.87
2018-07-16T01:03:59.993Z,69.87
2018-07-16T01:05:00.053Z,70.15
2018-07-16T01:06:00.049Z,70.06
2018-07-16T01:07:00.050Z,69.67
2018-07-16T01:08:00.044Z,69.67
2018-07-16T01:09:00.040Z,69.19
2018-07-16T01:10:00.073Z,69.96
2018-07-16T01:11:00.118Z,69.96
2018-07-16T01:12:00.121Z,70.15
2018-07-16T01:13:00.104Z,69.77
2018-07-16T01:14:00.099Z,69.57
2018-07-16T01:15:00.135Z,69.96
2018-07-16T01:16:00.132Z,69.38
2018-07-16T01:17:00.197Z,69.87
2018-07-16T01:18:00.184Z,69.57
2018-07-16T01:19:00.168Z,69.09
2018-07-16T01:20:00.215Z,69.19
2018-07-16T01:21:00.200Z,69.67
2018-07-16T01:22:00.226Z,69.57
2018-07-16T01:23:00.259Z,69.57
2018-07-16T01:24:00.308Z,69.77
2018-07-16T01:25:00.254Z,69.67
2018-07-16T01:26:00.255Z,69.19
2018-07-16T01:27:00.275Z,69.96
2018-07-16T01:28:00.342Z,69.48
2018-07-16T01:29:00.341Z,69.67
2018-07-16T01:30:00.323Z,69.38
2018-07-16T01:31:00.333Z,69.67
2018-07-16T01:32:00.344Z,69.48
2018-07-16T01:33:00.374Z,69.09
2018-07-16T01:34:00.392Z,68.99
2018-07-16T01:35:00.443Z,69.38
2018-07-16T01:36:00.386Z,69.77
2018-07-16T01:37:00.407Z,70.15
2018-07-16T01:38:00.416Z,69.96
2018-07-16T01:39:00.450Z,69.87
2018-07-16T01:40:00.475Z,69.67
2018-07-16T01:41:00.454Z,69.77
2018-07-16T01:42:00.489Z,69.87
2018-07-16T01:43:00.513Z,69.96
2018-07-16T01:44:00.523Z,69.87
2018-07-16T01:45:00.572Z,69.29
2018-07-16T01:46:00.547Z,69.96
2018-07-16T01:47:00.556Z,69.87
2018-07-16T01:48:00.548Z,70.06
2018-07-16T01:49:00.586Z,70.25
2018-07-16T01:50:00.639Z,69.38
2018-07-16T01:51:00.638Z,69.77
2018-07-16T01:52:00.602Z,69.19
2018-07-16T01:53:00.642Z,69.38
2018-07-16T01:54:00.642Z,70.15
2018-07-16T01:55:00.637Z,69.48
2018-07-16T01:56:00.718Z,69.19
2018-07-16T01:57:00.691Z,69.48
2018-07-16T01:58:00.698Z,69.57
2018-07-16T01:59:00.706Z,69.29
2018-07-16T02:00:00.715Z,69.29
2018-07-16T02:01:00.771Z,69.48
2018-07-16T02:02:00.797Z,69.38
2018-07-16T02:03:00.751Z,69.87
2018-07-16T02:04:00.766Z,69.48
2018-07-16T02:05:00.813Z,69.29
2018-07-16T02:06:00.818Z,69.87
2018-07-16T02:07:00.863Z,69.96
2018-07-16T02:08:00.829Z,69.96
2018-07-16T02:09:00.877Z,69.67
2018-07-16T02:10:00.869Z,69.87
2018-07-16T02:11:00.851Z,69.19
2018-07-16T02:12:00.895Z,68.99
2018-07-16T02:13:00.894Z,68.99
2018-07-16T02:14:00.922Z,69.67
2018-07-16T02:15:00.910Z,69.96
2018-07-16T02:16:00.928Z,69.29
2018-07-16T02:17:00.931Z,69.29
2018-07-16T02:18:01.106Z,69.48
2018-07-16T02:19:00.993Z,69.09
2018-07-16T02:20:00.976Z,69.19
2018-07-16T02:21:01.004Z,69.57
2018-07-16T02:22:01.049Z,69.19
2018-07-16T02:23:01.024Z,69.48
2018-07-16T02:24:01.023Z,69.38
2018-07-16T02:25:01.033Z,68.90
2018-07-16T02:26:01.034Z,70.15
2018-07-16T02:27:01.118Z,69.29
2018-07-16T02:28:01.105Z,69.48
2018-07-16T02:29:01.093Z,69.87
2018-07-16T02:30:01.133Z,69.77
2018-07-16T02:31:01.111Z,69.96
2018-07-16T02:32:01.165Z,69.77
2018-07-16T02:33:01.141Z,70.15
2018-07-16T02:34:01.188Z,70.06
2018-07-16T02:35:01.164Z,70.25
2018-07-16T02:36:01.187Z,70.06
2018-07-16T02:37:01.179Z,70.25
2018-07-16T02:38:01.267Z,69.87
2018-07-16T02:39:01.216Z,69.96
2018-07-16T02:40:01.240Z,69.57
2018-07-16T02:41:01.250Z,69.57
2018-07-16T02:42:01.293Z,69.48
2018-07-16T02:43:01.326Z,69.96
2018-07-16T02:44:01.290Z,69.67
2018-07-16T02:45:01.332Z,70.35
2018-07-16T02:46:01.356Z,70.15
2018-07-16T02:47:01.414Z,70.54
2018-07-16T02:48:01.389Z,70.15
2018-07-16T02:49:01.384Z,70.64
2018-07-16T02:50:01.415Z,70.25
2018-07-16T02:51:01.418Z,70.44
2018-07-16T02:52:01.376Z,70.06
2018-07-16T02:53:01.413Z,70.54
2018-07-16T02:54:01.405Z,70.25
2018-07-16T02:55:01.442Z,70.73
2018-07-16T02:56:01.484Z,70.35
2018-07-16T02:57:01.441Z,70.35
2018-07-16T02:58:01.468Z,71.08
2018-07-16T02:59:01.481Z,70.89
2018-07-16T03:00:01.525Z,70.92
2018-07-16T03:01:01.579Z,70.89
2018-07-16T03:02:01.527Z,70.21
2018-07-16T03:03:01.539Z,70.89
2018-07-16T03:04:01.555Z,70.64
2018-07-16T03:05:01.581Z,70.98
2018-07-16T03:06:01.581Z,71.02
2018-07-16T03:07:01.644Z,70.70
2018-07-16T03:08:01.596Z,71.02
2018-07-16T03:09:01.626Z,70.60
2018-07-16T03:10:01.618Z,70.73
2018-07-16T03:11:01.640Z,70.60
2018-07-16T03:12:01.672Z,70.79
2018-07-16T03:13:01.712Z,70.79
2018-07-16T03:14:01.674Z,70.02
2018-07-16T03:15:01.709Z,70.12
2018-07-16T03:16:01.716Z,71.08
2018-07-16T03:17:01.730Z,70.73
2018-07-16T03:18:01.833Z,70.41
2018-07-16T03:19:01.728Z,70.83
2018-07-16T03:20:01.780Z,70.64
2018-07-16T03:21:01.766Z,71.12
2018-07-16T03:22:01.795Z,70.83
2018-07-16T03:23:01.808Z,70.92
2018-07-16T03:24:01.903Z,70.41
2018-07-16T03:25:01.830Z,70.73
2018-07-16T03:26:01.818Z,71.02
2018-07-16T03:27:01.853Z,71.12
2018-07-16T03:28:01.868Z,70.83
2018-07-16T03:29:01.904Z,71.02
2018-07-16T03:30:01.931Z,70.92
2018-07-16T03:31:01.898Z,70.64
2018-07-16T03:32:01.933Z,70.73
2018-07-16T03:33:01.919Z,71.02
2018-07-16T03:34:01.950Z,71.02
2018-07-16T03:35:02.030Z,70.15
2018-07-16T03:36:02.005Z,70.44
2018-07-16T03:37:02.009Z,70.44
2018-07-16T03:38:01.985Z,71.12
2018-07-16T03:39:02.030Z,70.92
2018-07-16T03:40:02.031Z,70.15
2018-07-16T03:41:02.097Z,70.15
2018-07-16T03:42:02.075Z,70.44
2018-07-16T03:43:02.036Z,70.15
2018-07-16T03:44:02.058Z,70.06
2018-07-16T03:45:02.102Z,70.44
2018-07-16T03:46:02.135Z,70.35
2018-07-16T03:47:02.120Z,70.83
2018-07-16T03:48:02.159Z,71.02
2018-07-16T03:49:02.196Z,70.44
2018-07-16T03:50:02.164Z,70.64
2018-07-16T03:51:02.180Z,70.83
2018-07-16T03:52:02.212Z,71.12
2018-07-16T03:53:02.190Z,70.44
2018-07-16T03:54:02.200Z,70.35
2018-07-16T03:55:02.207Z,71.02
2018-07-16T03:56:02.239Z,70.44
2018-07-16T03:57:02.267Z,70.35
2018-07-16T03:58:02.259Z,70.06
2018-07-16T03:59:02.270Z,70.35
2018-07-16T04:00:02.333Z,70.25
2018-07-16T04:01:02.294Z,69.48
2018-07-16T04:02:02.321Z,69.29
2018-07-16T04:03:02.327Z,69.42
2018-07-16T04:04:02.338Z,70.09
2018-07-16T04:05:02.387Z,69.03
2018-07-16T04:06:02.409Z,68.55
2018-07-16T04:07:02.379Z,69.32
2018-07-16T04:08:02.369Z,69.23
2018-07-16T04:09:02.419Z,69.32
2018-07-16T04:10:02.440Z,68.45
2018-07-16T04:11:02.455Z,69.03
2018-07-16T04:12:02.491Z,69.13
2018-07-16T04:13:02.513Z,68.74
2018-07-16T04:14:02.476Z,68.26
2018-07-16T04:15:02.519Z,68.35
2018-07-16T04:16:02.571Z,68.16
2018-07-16T04:17:02.534Z,68.29
2018-07-16T04:18:02.532Z,68.10
2018-07-16T04:19:02.595Z,68.29
2018-07-16T04:20:02.583Z,68.19
2018-07-16T04:21:02.579Z,68.29
2018-07-16T04:22:02.655Z,68.10
2018-07-16T04:23:02.601Z,67.33
2018-07-16T04:24:02.619Z,67.91
2018-07-16T04:25:02.637Z,67.94
2018-07-16T04:26:02.644Z,67.36
2018-07-16T04:27:02.673Z,67.46
2018-07-16T04:28:02.715Z,67.27
2018-07-16T04:29:02.676Z,66.69
2018-07-16T04:30:02.709Z,66.49
2018-07-16T04:31:02.761Z,66.30
2018-07-16T04:32:02.744Z,66.30
2018-07-16T04:33:02.768Z,66.20
2018-07-16T04:34:02.734Z,65.34
2018-07-16T04:35:02.778Z,65.43
2018-07-16T04:36:02.805Z,65.72
2018-07-16T04:37:02.849Z,65.08
2018-07-16T04:38:02.806Z,65.37
2018-07-16T04:39:02.847Z,64.59
2018-07-16T04:40:02.856Z,64.98
2018-07-16T04:41:02.838Z,64.69
2018-07-16T04:42:02.899Z,64.63
2018-07-16T04:43:02.887Z,63.82
2018-07-16T04:44:02.927Z,63.76
2018-07-16T04:45:02.899Z,63.95
2018-07-16T04:46:02.911Z,63.66
2018-07-16T04:47:02.919Z,63.76
2018-07-16T04:48:02.935Z,63.56
2018-07-16T04:49:02.992Z,63.37
2018-07-16T04:50:02.984Z,63.56
2018-07-16T04:51:03.010Z,63.28
2018-07-16T04:52:03.003Z,63.28
2018-07-16T04:53:03.031Z,63.02
2018-07-16T04:54:03.027Z,62.73
2018-07-16T04:55:03.095Z,62.73
2018-07-16T04:56:03.146Z,61.86
2018-07-16T04:57:03.084Z,61.95
2018-07-16T04:58:03.095Z,61.76
2018-07-16T04:59:03.204Z,61.40
2018-07-16T05:00:03.161Z,62.18
2018-07-16T05:01:03.171Z,61.30
2018-07-16T05:02:03.171Z,61.11
2018-07-16T05:03:03.251Z,60.53
2018-07-16T05:04:03.184Z,60.34
2018-07-16T05:05:03.186Z,60.05
2018-07-16T05:06:03.228Z,60.27
2018-07-16T05:07:03.221Z,59.50
2018-07-16T05:08:03.372Z,60.17
2018-07-16T05:09:03.263Z,59.31
2018-07-16T05:10:03.267Z,58.72
2018-07-16T05:11:03.391Z,58.92
2018-07-16T05:12:03.287Z,59.21
2018-07-16T05:13:03.352Z,58.65
2018-07-16T05:14:03.344Z,59.05
2018-07-16T05:15:03.342Z,57.40
2018-07-16T05:16:03.346Z,57.20
2018-07-16T05:17:03.370Z,57.11
2018-07-16T05:18:03.451Z,57.11
2018-07-16T05:19:03.460Z,57.04
2018-07-16T05:20:03.544Z,56.65
2018-07-16T05:21:03.454Z,56.07
2018-07-16T05:22:03.586Z,54.91
2018-07-16T05:23:03.545Z,55.20
2018-07-16T05:24:03.578Z,55.32
2018-07-16T05:25:03.753Z,55.22
2018-07-16T05:26:03.714Z,54.84
2018-07-16T05:27:03.768Z,54.64
2018-07-16T05:28:03.532Z,54.48
2018-07-16T05:29:03.564Z,54.19
2018-07-16T05:30:03.684Z,53.22
2018-07-16T05:31:03.579Z,53.51
2018-07-16T05:32:03.668Z,53.31
2018-07-16T05:33:03.618Z,52.95
2018-07-16T05:34:03.639Z,53.34
2018-07-16T05:35:03.646Z,51.79
2018-07-16T05:36:03.747Z,52.01
2018-07-16T05:37:03.684Z,51.81
2018-07-16T05:38:03.758Z,51.33
2018-07-16T05:39:03.721Z,51.14
2018-07-16T05:40:03.728Z,51.45
2018-07-16T05:41:03.800Z,51.06
2018-07-16T05:42:03.838Z,49.99
2018-07-16T05:43:03.789Z,50.09
2018-07-16T05:44:03.822Z,49.99
2018-07-16T05:45:03.943Z,49.73
2018-07-16T05:46:03.858Z,50.02
2018-07-16T05:47:03.950Z,48.66
2018-07-16T05:48:03.896Z,49.15
2018-07-16T05:49:04.249Z,49.63
2018-07-16T05:50:03.961Z,49.15
2018-07-16T05:51:03.968Z,49.44
2018-07-16T05:52:03.983Z,48.95
2018-07-16T05:53:03.984Z,48.85
2018-07-16T05:54:04.374Z,49.22
2018-07-16T05:55:04.281Z,49.41
2018-07-16T05:56:04.336Z,49.80
2018-07-16T05:57:04.271Z,49.51
2018-07-16T05:58:04.280Z,49.51
2018-07-16T05:59:04.384Z,48.80
2018-07-16T06:00:04.354Z,49.00
2018-07-16T06:01:04.213Z,49.39
2018-07-16T06:02:04.363Z,49.77
2018-07-16T06:03:04.177Z,49.87
2018-07-16T06:04:04.182Z,50.16
2018-07-16T06:05:04.208Z,49.07
2018-07-16T06:06:04.259Z,49.34
2018-07-16T06:07:04.270Z,50.31
2018-07-16T06:08:04.238Z,50.79
2018-07-16T06:09:04.284Z,51.86
2018-07-16T06:10:04.305Z,51.06
2018-07-16T06:11:04.333Z,51.84
2018-07-16T06:12:04.311Z,51.62
2018-07-16T06:13:04.339Z,51.93
2018-07-16T06:14:04.346Z,52.58
2018-07-16T06:15:04.337Z,53.17
2018-07-16T06:16:04.447Z,53.45
2018-07-16T06:17:04.413Z,53.17
2018-07-16T06:18:04.466Z,53.36
2018-07-16T06:19:04.475Z,52.97
2018-07-16T06:20:04.515Z,52.95
2018-07-16T06:21:04.526Z,53.55
2018-07-16T06:22:04.956Z,53.53
2018-07-16T06:23:04.493Z,53.23
2018-07-16T06:24:04.591Z,54.01
2018-07-16T06:25:04.554Z,54.21
2018-07-16T06:26:04.528Z,54.49
2018-07-16T06:27:04.600Z,54.79
2018-07-16T06:28:04.614Z,53.72
2018-07-16T06:29:04.563Z,53.50
2018-07-16T06:30:04.612Z,54.37
2018-07-16T06:31:04.616Z,54.75
2018-07-16T06:32:05.011Z,54.85
2018-07-16T06:33:04.637Z,54.66
2018-07-16T06:34:04.743Z,53.96
2018-07-16T06:35:04.739Z,54.53
2018-07-16T06:36:04.987Z,54.53
2018-07-16T06:37:04.772Z,55.02
2018-07-16T06:38:04.832Z,54.83
2018-07-16T06:39:04.791Z,55.11
2018-07-16T06:40:04.888Z,55.51
2018-07-16T06:41:04.842Z,55.21
2018-07-16T06:42:04.784Z,55.11
2018-07-16T06:43:04.788Z,55.02
2018-07-16T06:44:04.915Z,55.47
2018-07-16T06:45:04.829Z,56.05
2018-07-16T06:46:04.823Z,56.63
2018-07-16T06:47:04.885Z,55.47
2018-07-16T06:48:04.886Z,55.38
2018-07-16T06:49:04.930Z,56.03
2018-07-16T06:50:04.946Z,56.15
2018-07-16T06:51:04.943Z,56.05
2018-07-16T06:52:04.989Z,55.87
2018-07-16T06:53:04.977Z,56.35
2018-07-16T06:54:04.953Z,56.03
2018-07-16T06:55:05.026Z,56.54
2018-07-16T06:56:05.019Z,56.54
2018-07-16T06:57:05.011Z,56.83
2018-07-16T06:58:05.012Z,56.32
2018-07-16T06:59:05.047Z,56.61
2018-07-16T07:00:05.076Z,56.32
2018-07-16T07:01:05.082Z,56.22
2018-07-16T07:02:05.127Z,57.21
2018-07-16T07:03:05.083Z,57.12
2018-07-16T07:04:05.272Z,56.54
2018-07-16T07:05:05.195Z,56.54
2018-07-16T07:06:05.208Z,56.41
2018-07-16T07:07:05.412Z,56.93
2018-07-16T07:08:05.328Z,57.60
2018-07-16T07:09:05.209Z,57.21
2018-07-16T07:10:05.407Z,56.51
2018-07-16T07:11:05.614Z,57.09
2018-07-16T07:12:05.248Z,56.99
2018-07-16T07:13:05.287Z,57.57
2018-07-16T07:14:05.297Z,57.48
2018-07-16T07:15:05.270Z,58.35
2018-07-16T07:16:05.305Z,57.31
2018-07-16T07:17:05.336Z,57.12
2018-07-16T07:18:05.368Z,57.38
2018-07-16T07:19:05.374Z,56.83
2018-07-16T07:20:05.363Z,56.73
2018-07-16T07:21:05.385Z,57.12
2018-07-16T07:22:05.384Z,57.21
2018-07-16T07:23:05.396Z,57.41
2018-07-16T07:24:05.449Z,57.60
2018-07-16T07:25:05.472Z,57.12
2018-07-16T07:26:05.433Z,57.03
2018-07-16T07:27:05.446Z,57.12
2018-07-16T07:28:05.496Z,57.12
2018-07-16T07:29:05.532Z,56.03
2018-07-16T07:30:05.579Z,56.03
2018-07-16T07:31:05.570Z,56.51
2018-07-16T07:32:05.553Z,55.87
2018-07-16T07:33:05.598Z,56.99
2018-07-16T07:34:05.548Z,56.99
2018-07-16T07:35:05.613Z,56.90
2018-07-16T07:36:05.673Z,56.99
2018-07-16T07:37:05.595Z,57.48
2018-07-16T07:38:05.666Z,57.09
2018-07-16T07:39:05.680Z,56.71
2018-07-16T07:40:05.627Z,57.09
2018-07-16T07:41:05.655Z,57.29
2018-07-16T07:42:05.758Z,57.67
2018-07-16T07:43:05.687Z,57.67
2018-07-16T07:44:05.715Z,57.87
2018-07-16T07:45:05.728Z,57.09
2018-07-16T07:46:05.743Z,56.99
2018-07-16T07:47:05.764Z,58.06
2018-07-16T07:48:05.753Z,58.28
2018-07-16T07:49:05.777Z,58.09
2018-07-16T07:50:05.802Z,57.79
2018-07-16T07:51:05.875Z,58.09
2018-07-16T07:52:05.813Z,57.99
2018-07-16T07:53:05.862Z,57.03
2018-07-16T07:54:05.874Z,57.21
2018-07-16T07:55:05.973Z,57.12
2018-07-16T07:56:05.883Z,56.25
2018-07-16T07:57:05.878Z,56.15
2018-07-16T07:58:05.946Z,56.99
2018-07-16T07:59:05.953Z,57.12
2018-07-16T08:00:05.917Z,57.03
2018-07-16T08:01:05.951Z,56.54
2018-07-16T08:02:05.983Z,56.93
2018-07-16T08:03:06.032Z,57.31
2018-07-16T08:04:06.026Z,57.03
2018-07-16T08:05:06.005Z,57.03
2018-07-16T08:06:06.107Z,57.79
2018-07-16T08:07:06.019Z,55.87
2018-07-16T08:08:06.054Z,56.54
2018-07-16T08:09:06.110Z,56.45
2018-07-16T08:10:06.143Z,56.63
2018-07-16T08:11:06.103Z,57.03
2018-07-16T08:12:06.151Z,56.73
2018-07-16T08:13:06.193Z,56.15
2018-07-16T08:14:06.174Z,56.05
2018-07-16T08:15:06.222Z,56.63
2018-07-16T08:16:06.166Z,56.63
2018-07-16T08:17:06.226Z,56.15
2018-07-16T08:18:06.209Z,56.63
2018-07-16T08:19:06.288Z,56.73
2018-07-16T08:20:06.276Z,57.03
2018-07-16T08:21:06.296Z,57.41
2018-07-16T08:22:06.284Z,56.54
2018-07-16T08:23:06.273Z,56.54
2018-07-16T08:24:06.306Z,56.54
2018-07-16T08:25:06.296Z,56.95
2018-07-16T08:26:06.306Z,56.76
2018-07-16T08:27:06.390Z,56.57
2018-07-16T08:28:06.460Z,56.09
2018-07-16T08:29:06.337Z,55.89
2018-07-16T08:30:06.382Z,55.99
2018-07-16T08:31:06.397Z,55.99
2018-07-16T08:32:06.404Z,56.57
2018-07-16T08:33:06.451Z,56.57
2018-07-16T08:34:06.425Z,56.18
2018-07-16T08:35:06.463Z,56.28
2018-07-16T08:36:06.480Z,56.09
2018-07-16T08:37:06.491Z,56.28
2018-07-16T08:38:06.529Z,55.89
2018-07-16T08:39:06.540Z,55.99
2018-07-16T08:40:06.557Z,56.09
2018-07-16T08:41:06.558Z,55.31
2018-07-16T08:42:06.559Z,54.93
2018-07-16T08:43:06.654Z,54.99
2018-07-16T08:44:06.618Z,55.21
2018-07-16T08:45:06.601Z,55.21
2018-07-16T08:46:06.645Z,54.93
2018-07-16T08:47:06.747Z,54.63
2018-07-16T08:48:06.648Z,55.21
2018-07-16T08:49:06.664Z,55.51
2018-07-16T08:50:06.723Z,55.02
2018-07-16T08:51:06.762Z,55.41
2018-07-16T08:52:06.754Z,56.09
2018-07-16T08:53:06.870Z,56.09
2018-07-16T08:54:06.743Z,55.99
2018-07-16T08:55:06.731Z,55.02
2018-07-16T08:56:06.811Z,55.02
2018-07-16T08:57:06.778Z,54.73
2018-07-16T08:58:06.778Z,54.63
2018-07-16T08:59:06.962Z,53.57
2018-07-16T09:00:06.850Z,54.15
2018-07-16T09:01:06.858Z,53.28
2018-07-16T09:02:06.879Z,53.77
2018-07-16T09:03:06.873Z,54.15
2018-07-16T09:04:07.009Z,53.57
2018-07-16T09:05:06.929Z,54.05
2018-07-16T09:06:06.907Z,53.47
2018-07-16T09:07:06.956Z,53.67
2018-07-16T09:08:06.934Z,53.57
2018-07-16T09:09:07.009Z,53.38
2018-07-16T09:10:07.002Z,53.86
2018-07-16T09:11:06.994Z,53.86
2018-07-16T09:12:07.011Z,54.25
2018-07-16T09:13:07.137Z,54.63
2018-07-16T09:14:07.312Z,55.31
2018-07-16T09:15:07.061Z,55.11
2018-07-16T09:16:07.197Z,55.21
2018-07-16T09:17:07.104Z,55.31
2018-07-16T09:18:07.080Z,55.02
2018-07-16T09:19:07.150Z,54.44
2018-07-16T09:20:07.135Z,55.02
2018-07-16T09:21:07.156Z,54.35
2018-07-16T09:22:07.222Z,54.73
2018-07-16T09:23:07.244Z,55.05
2018-07-16T09:24:07.194Z,54.63
2018-07-16T09:25:07.182Z,54.37
2018-07-16T09:26:07.249Z,53.28
2018-07-16T09:27:07.258Z,53.28
2018-07-16T09:28:07.280Z,52.70
2018-07-16T09:29:07.270Z,52.61
2018-07-16T09:30:07.247Z,52.51
2018-07-16T09:31:07.366Z,52.89
2018-07-16T09:32:07.272Z,51.54
2018-07-16T09:33:07.347Z,51.93
2018-07-16T09:34:07.334Z,52.99
2018-07-16T09:35:07.366Z,52.51
2018-07-16T09:36:07.387Z,52.12
2018-07-16T09:37:07.351Z,52.22
2018-07-16T09:38:08.016Z,50.96
2018-07-16T09:39:07.545Z,51.06
2018-07-16T09:40:07.441Z,51.73
2018-07-16T09:41:07.492Z,51.47
2018-07-16T09:42:07.451Z,51.83
2018-07-16T09:43:07.454Z,51.95
2018-07-16T09:44:07.501Z,51.76
2018-07-16T09:45:07.487Z,51.56
2018-07-16T09:46:07.543Z,53.11
2018-07-16T09:47:07.514Z,53.11
2018-07-16T09:48:07.523Z,53.21
2018-07-16T09:49:07.540Z,53.02
2018-07-16T09:50:07.970Z,53.41
2018-07-16T09:51:09.384Z,51.86
2018-07-16T09:52:07.712Z,52.14
2018-07-16T09:53:07.626Z,51.86
2018-07-16T09:54:07.662Z,51.76
2018-07-16T09:55:07.689Z,50.40
2018-07-16T09:56:08.148Z,50.98
2018-07-16T09:57:08.059Z,51.47
2018-07-16T09:58:07.665Z,52.44
2018-07-16T09:59:07.704Z,52.73
2018-07-16T10:00:07.701Z,53.02
2018-07-16T10:01:07.740Z,51.86
2018-07-16T10:02:07.784Z,51.66
2018-07-16T10:03:07.779Z,50.60
2018-07-16T10:04:07.758Z,49.92
2018-07-16T10:05:07.820Z,50.79
2018-07-16T10:06:07.795Z,50.98
2018-07-16T10:07:08.060Z,49.82
2018-07-16T10:08:07.846Z,50.21
2018-07-16T10:09:07.827Z,49.73
2018-07-16T10:10:07.895Z,50.12
2018-07-16T10:11:07.873Z,50.21
2018-07-16T10:12:07.905Z,50.70
2018-07-16T10:13:07.944Z,50.70
2018-07-16T10:14:07.949Z,51.66
2018-07-16T10:15:07.920Z,51.76
2018-07-16T10:16:07.955Z,51.66
2018-07-16T10:17:07.942Z,51.95
2018-07-16T10:18:08.017Z,53.02
2018-07-16T10:19:07.990Z,52.92
2018-07-16T10:20:08.067Z,52.14
2018-07-16T10:21:08.007Z,53.02
2018-07-16T10:22:08.049Z,52.82
2018-07-16T10:23:08.072Z,52.82
2018-07-16T10:24:08.059Z,53.31
2018-07-16T10:25:08.110Z,53.11
2018-07-16T10:26:08.105Z,53.21
2018-07-16T10:27:08.101Z,53.81
2018-07-16T10:28:08.126Z,53.21
2018-07-16T10:29:08.134Z,53.14
2018-07-16T10:30:08.211Z,52.05
2018-07-16T10:31:08.201Z,51.86
2018-07-16T10:32:08.190Z,51.66
2018-07-16T10:33:08.196Z,51.95
2018-07-16T10:34:08.212Z,52.08
2018-07-16T10:35:08.280Z,52.95
2018-07-16T10:36:08.288Z,52.56
2018-07-16T10:37:08.238Z,51.20
2018-07-16T10:38:08.282Z,50.14
2018-07-16T10:39:08.374Z,50.14
2018-07-16T10:40:08.296Z,49.65
2018-07-16T10:41:08.316Z,49.95
2018-07-16T10:42:08.357Z,49.85
2018-07-16T10:43:08.341Z,50.14
2018-07-16T10:44:08.444Z,50.24
2018-07-16T10:45:08.410Z,50.62
2018-07-16T10:46:08.425Z,50.62
2018-07-16T10:47:08.430Z,50.24
2018-07-16T10:48:08.441Z,50.24
2018-07-16T10:49:08.467Z,50.33
2018-07-16T10:50:08.468Z,50.43
2018-07-16T10:51:08.552Z,50.24
2018-07-16T10:52:08.502Z,49.46
2018-07-16T10:53:08.517Z,49.46
2018-07-16T10:54:08.509Z,49.85
2018-07-16T10:55:08.663Z,49.85
2018-07-16T10:56:08.584Z,49.75
2018-07-16T10:57:08.585Z,49.56
2018-07-16T10:58:08.567Z,49.27
2018-07-16T10:59:08.607Z,48.88
2018-07-16T11:00:08.645Z,47.72
2018-07-16T11:01:08.626Z,47.91
2018-07-16T11:02:08.738Z,47.81
2018-07-16T11:03:08.901Z,47.14
2018-07-16T11:04:08.681Z,47.52
2018-07-16T11:05:08.712Z,46.17
2018-07-16T11:06:08.703Z,46.26
2018-07-16T11:07:08.771Z,46.46
2018-07-16T11:08:08.798Z,46.08
2018-07-16T11:09:08.735Z,46.66
2018-07-16T11:10:08.753Z,45.88
2018-07-16T11:11:08.749Z,46.56
2018-07-16T11:12:08.799Z,47.14
2018-07-16T11:13:08.846Z,47.33
2018-07-16T11:14:08.814Z,47.24
2018-07-16T11:15:08.910Z,46.84
2018-07-16T11:16:08.836Z,47.52
2018-07-16T11:17:08.864Z,47.81
2018-07-16T11:18:08.932Z,47.81
2018-07-16T11:19:08.888Z,45.88
2018-07-16T11:20:08.920Z,46.46
2018-07-16T11:21:08.955Z,46.46
2018-07-16T11:22:08.942Z,46.66
2018-07-16T11:23:08.983Z,46.56
2018-07-16T11:24:08.956Z,45.68
2018-07-16T11:25:09.023Z,45.01
2018-07-16T11:26:08.996Z,44.13
2018-07-16T11:27:09.023Z,44.43
2018-07-16T11:28:09.067Z,45.40
2018-07-16T11:29:09.032Z,45.42
2018-07-16T11:30:09.119Z,44.26
2018-07-16T11:31:09.086Z,44.04
2018-07-16T11:32:09.103Z,44.04
2018-07-16T11:33:09.115Z,45.30
2018-07-16T11:34:09.161Z,45.30
2018-07-16T11:35:09.198Z,45.68
2018-07-16T11:36:09.171Z,45.71
2018-07-16T11:37:09.191Z,45.81
2018-07-16T11:38:09.198Z,46.00
2018-07-16T11:39:09.185Z,46.09
2018-07-16T11:40:09.226Z,45.22
2018-07-16T11:41:09.233Z,45.22
2018-07-16T11:42:09.286Z,45.81
2018-07-16T11:43:09.296Z,45.42
2018-07-16T11:44:09.260Z,46.19
2018-07-16T11:45:09.294Z,46.97
2018-07-16T11:46:09.395Z,46.48
2018-07-16T11:47:09.344Z,46.58
2018-07-16T11:48:09.414Z,46.09
2018-07-16T11:49:09.372Z,46.09
2018-07-16T11:50:09.408Z,46.29
2018-07-16T11:51:09.380Z,45.90
2018-07-16T11:52:09.445Z,46.39
2018-07-16T11:53:09.441Z,46.87
2018-07-16T11:54:09.448Z,46.29
2018-07-16T11:55:09.507Z,46.77
2018-07-16T11:56:09.485Z,46.97
2018-07-16T11:57:09.523Z,46.97
2018-07-16T11:58:09.503Z,46.77
2018-07-16T11:59:09.580Z,46.67
2018-07-16T12:00:09.579Z,47.06
2018-07-16T12:01:09.544Z,46.87
2018-07-16T12:02:09.583Z,47.36
2018-07-16T12:03:09.625Z,46.87
2018-07-16T12:04:09.625Z,46.29
2018-07-16T12:05:09.698Z,46.67
2018-07-16T12:06:09.631Z,46.87
2018-07-16T12:07:09.617Z,46.67
2018-07-16T12:08:09.831Z,47.84
2018-07-16T12:09:09.708Z,47.16
2018-07-16T12:10:09.764Z,46.97
2018-07-16T12:11:09.701Z,46.77
2018-07-16T12:12:09.851Z,47.67
2018-07-16T12:13:09.767Z,47.09
2018-07-16T12:14:09.813Z,46.87
2018-07-16T12:15:09.818Z,46.89
2018-07-16T12:16:09.779Z,46.89
2018-07-16T12:17:09.846Z,46.60
2018-07-16T12:18:09.810Z,46.67
2018-07-16T12:19:09.834Z,47.19
2018-07-16T12:20:09.828Z,47.28
2018-07-16T12:21:09.875Z,47.86
2018-07-16T12:22:09.889Z,47.86
2018-07-16T12:23:09.951Z,47.28
2018-07-16T12:24:09.906Z,47.67
2018-07-16T12:25:09.891Z,46.89
2018-07-16T12:26:09.913Z,46.70
2018-07-16T12:27:09.985Z,46.60
2018-07-16T12:28:09.943Z,46.48
2018-07-16T12:29:09.977Z,46.60
2018-07-16T12:30:09.988Z,46.70
2018-07-16T12:31:10.101Z,46.31
2018-07-16T12:32:10.187Z,46.00
2018-07-16T12:33:10.100Z,46.31
2018-07-16T12:34:10.069Z,47.19
2018-07-16T12:35:10.136Z,46.51
2018-07-16T12:36:10.081Z,46.41
2018-07-16T12:37:10.120Z,46.51
2018-07-16T12:38:10.109Z,46.02
2018-07-16T12:39:10.139Z,45.92
2018-07-16T12:40:10.148Z,46.12
2018-07-16T12:41:10.188Z,44.47
2018-07-16T12:42:10.216Z,44.26
2018-07-16T12:43:10.238Z,44.16
2018-07-16T12:44:10.204Z,44.16
2018-07-16T12:45:10.304Z,43.99
2018-07-16T12:46:10.288Z,44.09
2018-07-16T12:47:10.329Z,44.47
2018-07-16T12:48:10.349Z,43.99
2018-07-16T12:49:10.398Z,43.96
2018-07-16T12:50:10.302Z,45.25
2018-07-16T12:51:10.309Z,45.73
2018-07-16T12:52:10.379Z,46.51
2018-07-16T12:53:10.358Z,45.73